Odate Noshiro, Japan

11:32 PM JST on October 21, 2014 (GMT +0900)
Akita | Change Station
CLOSE
Current Station
Airport
Location: Akita Airport,
Elevation: 315 ft
Nearby Weather Stations

Elev 315 ft 39.62 °N, 140.22 °E | Updated 1 hour ago

Light Rain Showers
Light Showers Rain
55 °F
Feels Like 55 °F
N
6
Wind Variable Wind from NW

Today
High -- | Low -- °F
--% Chance of Precip.
Yesterday
High -- | Low -- °F
Precip. -- in
5:54 AM 4:50 PM
Waning Crescent, 5% visible
Pressure 29.95 in
Visibility 5.0 miles
Clouds Few 100 ft
Scattered Clouds 200 ft
Mostly Cloudy 5000 ft
Dew Point 54 °F
Humidity 94%
Rainfall 0.00 in
Snow Depth Not available.
UV 0 out of 12
Pollen Not available.
Air Quality Not available.
Flu Activity Not available.
SPECI RJSK 211239Z 32005KT 300V360 8000 -SHRA FEW001 SCT002 BKN050 13/12 Q1014 RMK 1ST001 3ST002 5CU050 A2997

More Conditions Fewer Conditions

Pressure 29.95 in
Visibility 5.0 miles
Clouds Few 100 ft
Scattered Clouds 200 ft
Mostly Cloudy 5000 ft
Dew Point 54 °F
Humidity 94%
Rainfall 0.00 in
Snow Depth Not available.
UV 0 out of 12
Pollen Not available.
Air Quality Not available.
Flu Activity Not available.
SPECI RJSK 211239Z 32005KT 300V360 8000 -SHRA FEW001 SCT002 BKN050 13/12 Q1014 RMK 1ST001 3ST002 5CU050 A2997

More Conditions Fewer Conditions

10-Day Weather Forecast

Almanac

Astronomy

Oct. 21, 2014 Rise Set
Actual Time 5:54 AM JST 4:50 PM JST
Civil Twilight 5:27 AM JST 5:18 PM JST
Nautical Twilight 4:55 AM JST 5:50 PM JST
Astronomical Twilight 4:24 AM JST 6:21 PM JST
Moon 3:03 AM JST 3:24 PM JST
Length of Visible Light 11h 51m
Length of Day
10h 55m
Tomorrow will be 2m 30s shorter.
Waning Crescent, 5% of the Moon is Illuminated
Today
Waning Crescent
Oct 23
New
Oct 30
First Quarter
Nov 6
Full
Nov 14
Last Quarter

Today's Extremes

Country Highs Country Lows

Community

WunderPhotos

Upload Photos

1,763,676 photos uploaded!

Nearby

Snow Depth

Not available.

Earthquake Activity

City Distance Mag. Time & Date
No recent earthquake activity has been reported nearby.
Minimum magnitude displayed is 2.5.

Coastal Water Temperatures

Place Temperature
No Stations Reporting

Nearby Weather Stations